Time;durP1;ratioP1;P1;durP2;ratioP2;P2;SDS_P1;SDS_P2;PMS_P1;PMS_P2;Temp;Humidity;BMP_temperature;BMP_pressure;BME280_temperature;BME280_humidity;BME280_pressure;Samples;Min_cycle;Max_cycle;Signal;HPM_P1;HPM_P2
2021/05/14 00:05:23;;;;;;;8.6;6.7;;;;;;;12.92;100;97036.14;;;;
2021/05/14 00:15:22;;;;;;;9.7;6;;;;;;;12.92;100;97039.63;;;;
2021/05/14 00:25:21;;;;;;;9.9;6.7;;;;;;;12.82;100;97048.34;;;;
2021/05/14 00:35:20;;;;;;;10.1;6.9;;;;;;;12.82;100;97042.93;;;;
2021/05/14 00:45:19;;;;;;;10.3;7.2;;;;;;;12.9;100;97044.63;;;;
2021/05/14 00:55:18;;;;;;;10.2;6.9;;;;;;;12.72;100;97038.12;;;;
2021/05/14 01:05:17;;;;;;;8.7;6.9;;;;;;;12.75;100;97050.13;;;;
2021/05/14 01:15:16;;;;;;;11.4;6.9;;;;;;;12.84;100;97040.64;;;;
2021/05/14 01:25:15;;;;;;;9.4;6.3;;;;;;;12.74;100;97035.82;;;;
2021/05/14 01:35:14;;;;;;;10.8;6.2;;;;;;;12.73;100;97041.6;;;;
2021/05/14 01:45:13;;;;;;;8.1;6.9;;;;;;;12.67;100;97038.39;;;;
2021/05/14 01:55:12;;;;;;;8.7;7.1;;;;;;;12.72;100;97038.12;;;;
2021/05/14 02:05:11;;;;;;;7.1;5.1;;;;;;;12.68;100;97036.48;;;;
2021/05/14 02:15:10;;;;;;;9.7;4.9;;;;;;;12.72;100;97050.84;;;;
2021/05/14 02:25:09;;;;;;;9.4;6.8;;;;;;;12.76;100;97044.38;;;;
2021/05/14 02:35:08;;;;;;;7;5.7;;;;;;;12.75;100;97047.42;;;;
2021/05/14 02:45:08;;;;;;;7.8;5.7;;;;;;;12.69;100;97056.97;;;;
2021/05/14 02:55:07;;;;;;;9.8;6.9;;;;;;;12.83;100;97054.53;;;;
2021/05/14 03:05:06;;;;;;;12.5;9.8;;;;;;;12.78;100;97063.7;;;;
2021/05/14 03:15:05;;;;;;;15.2;12;;;;;;;12.74;100;97062.86;;;;
2021/05/14 03:25:04;;;;;;;15.3;13.6;;;;;;;12.46;100;97070.45;;;;
2021/05/14 03:35:03;;;;;;;21.1;16.3;;;;;;;12.33;100;97075.19;;;;
2021/05/14 03:45:02;;;;;;;17.2;15.4;;;;;;;12.28;100;97082.8;;;;
2021/05/14 03:55:00;;;;;;;25.8;19.1;;;;;;;12.32;100;97095.23;;;;
2021/05/14 04:05:00;;;;;;;27.9;22.9;;;;;;;12.34;100;97103.78;;;;
2021/05/14 04:14:58;;;;;;;25.4;22.4;;;;;;;12.27;100;97097.44;;;;
2021/05/14 04:24:57;;;;;;;27.5;24.6;;;;;;;12.41;100;97108.55;;;;
2021/05/14 04:34:56;;;;;;;34.8;25.4;;;;;;;12.49;100;97115.67;;;;
2021/05/14 04:44:55;;;;;;;23.9;21.4;;;;;;;12.51;100;97116.08;;;;
2021/05/14 04:54:54;;;;;;;35.1;25.5;;;;;;;12.42;100;97118.22;;;;
2021/05/14 05:04:53;;;;;;;28.2;23.2;;;;;;;12.38;100;97118.15;;;;
2021/05/14 05:14:52;;;;;;;30.2;24;;;;;;;12.43;100;97134.06;;;;
2021/05/14 05:24:52;;;;;;;26.3;20.8;;;;;;;12.37;100;97135.48;;;;
2021/05/14 05:34:51;;;;;;;23.5;20.7;;;;;;;12.35;100;97142.39;;;;
2021/05/14 05:44:50;;;;;;;26.9;22;;;;;;;12.39;100;97148.66;;;;
2021/05/14 05:54:49;;;;;;;23.7;19.8;;;;;;;12.43;100;97165.7;;;;
2021/05/14 06:04:49;;;;;;;26.3;20.9;;;;;;;12.4;100;97177.22;;;;
2021/05/14 06:14:47;;;;;;;28.8;22.6;;;;;;;12.44;100;97194.3;;;;
2021/05/14 06:24:46;;;;;;;22.4;19.8;;;;;;;12.45;100;97203.97;;;;
2021/05/14 06:34:45;;;;;;;24.4;17.8;;;;;;;12.54;100;97209.95;;;;
2021/05/14 06:44:44;;;;;;;27.9;16.6;;;;;;;12.64;100;97225.61;;;;
2021/05/14 06:54:43;;;;;;;24.1;19.1;;;;;;;12.7;100;97224.22;;;;
2021/05/14 07:04:42;;;;;;;29.2;20;;;;;;;12.95;100;97238.23;;;;
2021/05/14 07:14:41;;;;;;;21.5;19.1;;;;;;;13.16;100;97252.22;;;;
2021/05/14 07:24:40;;;;;;;22.2;18.7;;;;;;;13.16;100;97265.75;;;;
2021/05/14 07:34:39;;;;;;;21;17.1;;;;;;;13.17;100;97263.83;;;;
2021/05/14 07:44:38;;;;;;;20.5;17;;;;;;;13.29;100;97277.23;;;;
2021/05/14 07:54:37;;;;;;;26.4;18.3;;;;;;;13.4;100;97280.91;;;;
2021/05/14 08:04:36;;;;;;;28.4;22;;;;;;;13.27;100;97285.69;;;;
2021/05/14 08:14:36;;;;;;;28.5;20.4;;;;;;;13.43;100;97296.45;;;;
2021/05/14 08:24:35;;;;;;;25.9;19.6;;;;;;;13.54;100;97300.13;;;;
2021/05/14 08:34:34;;;;;;;25.3;21.8;;;;;;;13.51;100;97311.67;;;;
2021/05/14 08:44:33;;;;;;;32.4;21.9;;;;;;;13.86;100;97322.39;;;;
2021/05/14 08:54:33;;;;;;;24.5;21.8;;;;;;;14.18;100;97325.67;;;;
2021/05/14 09:04:33;;;;;;;25.5;21;;;;;;;14.3;100;97331.68;;;;
2021/05/14 09:14:38;;;;;;;27.9;21.3;;;;;;;14.67;100;97345.49;;;;
2021/05/14 09:24:32;;;;;;;21.2;17;;;;;;;15.3;100;97353.77;;;;
2021/05/14 09:34:35;;;;;;;21.5;19.2;;;;;;;15.4;100;97358.55;;;;
2021/05/14 09:44:29;;;;;;;29;19.9;;;;;;;15.73;100;97370.61;;;;
2021/05/14 09:54:28;;;;;;;21.9;17.7;;;;;;;15.72;100;97371.78;;;;
2021/05/14 10:04:28;;;;;;;22.1;19.7;;;;;;;15.88;100;97369.63;;;;
2021/05/14 10:14:27;;;;;;;24;20.4;;;;;;;16.23;100;97369.22;;;;
2021/05/14 10:24:27;;;;;;;22.6;17.6;;;;;;;16.62;100;97373.11;;;;
2021/05/14 10:34:26;;;;;;;29.4;23.1;;;;;;;16.92;100;97376.45;;;;
2021/05/14 10:44:26;;;;;;;28.3;19.4;;;;;;;16.76;100;97378.67;;;;
2021/05/14 10:54:26;;;;;;;20.6;16.5;;;;;;;17.05;100;97388.59;;;;
2021/05/14 11:04:25;;;;;;;18.9;16.9;;;;;;;17.38;100;97401.26;;;;
2021/05/14 11:14:25;;;;;;;14.7;12;;;;;;;17.38;100;97411.37;;;;
2021/05/14 11:24:25;;;;;;;24.2;18.6;;;;;;;17.6;100;97413.06;;;;
2021/05/14 11:34:25;;;;;;;14.1;11.6;;;;;;;18.01;100;97411.67;;;;
2021/05/14 11:44:26;;;;;;;14;10.2;;;;;;;18.12;100;97424.59;;;;
2021/05/14 11:54:24;;;;;;;11.8;8.3;;;;;;;17.93;98.55957;97426.47;;;;
2021/05/14 12:04:24;;;;;;;10.6;7.8;;;;;;;17.81;98.93066;97439.63;;;;
2021/05/14 12:14:24;;;;;;;10.5;6;;;;;;;17.9;99.66992;97451.77;;;;
2021/05/14 12:24:24;;;;;;;8.7;5.1;;;;;;;17.75;99.26953;97460.25;;;;
2021/05/14 12:34:24;;;;;;;7.2;5.7;;;;;;;18.03;100;97454.93;;;;
2021/05/14 12:44:24;;;;;;;8.8;6.2;;;;;;;17.54;100;97475.28;;;;
2021/05/14 12:54:23;;;;;;;10.7;5.8;;;;;;;17.35;100;97461.94;;;;
2021/05/14 13:04:23;;;;;;;8.8;5.3;;;;;;;17.42;100;97477.55;;;;
2021/05/14 13:14:22;;;;;;;9.6;5.4;;;;;;;16.99;100;97469.05;;;;
2021/05/14 13:24:22;;;;;;;5.9;3.9;;;;;;;16.45;100;97487.94;;;;
2021/05/14 13:34:22;;;;;;;4.5;2.8;;;;;;;17.05;100;97510.3;;;;
2021/05/14 13:44:21;;;;;;;9.6;6.4;;;;;;;17.46;100;97528.15;;;;
2021/05/14 13:54:21;;;;;;;11.3;9.4;;;;;;;17.89;99.5752;97523.8;;;;
2021/05/14 14:04:21;;;;;;;15.1;11.5;;;;;;;17.68;97.77246;97536.51;;;;
2021/05/14 14:14:21;;;;;;;17.5;11.8;;;;;;;18.21;94.97754;97542.27;;;;
2021/05/14 14:24:20;;;;;;;21.5;14.2;;;;;;;18.02;96.48047;97549.58;;;;
2021/05/14 14:34:20;;;;;;;16.1;12.9;;;;;;;17.44;99.53027;97554.21;;;;
2021/05/14 14:44:20;;;;;;;18.1;15.6;;;;;;;16.4;100;97553.52;;;;
2021/05/14 14:54:20;;;;;;;20.4;15.5;;;;;;;16.51;100;97560.66;;;;
2021/05/14 15:04:20;;;;;;;17;14.2;;;;;;;15.92;100;97579.69;;;;
2021/05/14 15:14:19;;;;;;;18.4;15;;;;;;;15.14;100;97586.55;;;;
2021/05/14 15:24:18;;;;;;;20.5;15.9;;;;;;;15.19;100;97588.98;;;;
2021/05/14 15:34:18;;;;;;;20.2;16.4;;;;;;;16.05;100;97597.34;;;;
2021/05/14 15:44:17;;;;;;;17.1;14;;;;;;;17.77;96.57227;97599.66;;;;
2021/05/14 15:54:17;;;;;;;14.7;12.3;;;;;;;17.62;94.39844;97598.77;;;;
2021/05/14 16:04:17;;;;;;;16.2;12;;;;;;;16.95;97.09082;97611.7;;;;
2021/05/14 16:14:17;;;;;;;18.6;11.2;;;;;;;16.19;99.6377;97618.5;;;;
2021/05/14 16:24:16;;;;;;;14.1;11.9;;;;;;;15.3;100;97627.17;;;;
2021/05/14 16:34:16;;;;;;;11.9;9.8;;;;;;;14.73;100;97636.95;;;;
2021/05/14 16:44:15;;;;;;;15.7;10.3;;;;;;;14.22;100;97649.8;;;;
2021/05/14 16:54:14;;;;;;;11.7;9.8;;;;;;;13.83;100;97648.1;;;;
2021/05/14 17:04:14;;;;;;;12;9.6;;;;;;;13.75;100;97662.6;;;;
2021/05/14 17:14:13;;;;;;;12.9;8.5;;;;;;;13.23;100;97674.45;;;;
2021/05/14 17:24:12;;;;;;;9.9;8.1;;;;;;;12.97;100;97688.42;;;;
2021/05/14 17:34:11;;;;;;;9.5;8.4;;;;;;;12.97;100;97701.16;;;;
2021/05/14 17:44:10;;;;;;;10.3;7.5;;;;;;;12.73;100;97707.44;;;;
2021/05/14 17:54:09;;;;;;;11.4;6.4;;;;;;;12.45;100;97701.19;;;;
2021/05/14 18:04:08;;;;;;;12.4;7.5;;;;;;;12.23;100;97715.96;;;;
2021/05/14 18:14:08;;;;;;;8.1;5.1;;;;;;;12.18;100;97731.63;;;;
2021/05/14 18:24:07;;;;;;;10.5;6.7;;;;;;;12.07;100;97736.69;;;;
2021/05/14 18:34:09;;;;;;;6.8;5.2;;;;;;;12.03;100;97735.78;;;;
2021/05/14 18:44:04;;;;;;;8.4;6.3;;;;;;;12.04;100;97754.33;;;;
2021/05/14 18:54:03;;;;;;;7;5.2;;;;;;;11.81;100;97774.79;;;;
2021/05/14 19:04:02;;;;;;;10.6;7.2;;;;;;;11.63;100;97787.65;;;;
2021/05/14 19:14:04;;;;;;;9.7;7.5;;;;;;;11.56;100;97808.99;;;;
2021/05/14 19:24:06;;;;;;;9.5;8.4;;;;;;;11.57;100;97812.48;;;;
2021/05/14 19:44:32;;;;;;;9.5;6.7;;;;;;;11.57;100;97834.08;;;;
2021/05/14 19:53:56;;;;;;;11.8;9.7;;;;;;;11.59;100;97856.14;;;;
2021/05/14 20:03:55;;;;;;;11;8.5;;;;;;;11.49;100;97856.52;;;;
2021/05/14 20:13:54;;;;;;;16.1;9.2;;;;;;;11.59;100;97861.53;;;;
2021/05/14 20:23:53;;;;;;;9.1;6.9;;;;;;;11.54;100;97873.31;;;;
2021/05/14 20:33:52;;;;;;;13.7;8.2;;;;;;;11.52;100;97886.33;;;;
2021/05/14 20:43:51;;;;;;;5.9;4.5;;;;;;;11.56;100;97889.16;;;;
2021/05/14 20:53:49;;;;;;;8.5;6.2;;;;;;;11.57;100;97891.54;;;;
2021/05/14 21:03:48;;;;;;;9.1;4.8;;;;;;;11.59;100;97893.92;;;;
2021/05/14 21:13:47;;;;;;;8.2;5.6;;;;;;;11.61;100;97900.56;;;;
2021/05/14 21:23:46;;;;;;;7.4;6.1;;;;;;;11.7;100;97897.01;;;;
2021/05/14 21:33:46;;;;;;;7.2;4.7;;;;;;;11.73;100;97910.63;;;;
2021/05/14 21:43:44;;;;;;;8.2;4;;;;;;;11.7;100;97900.47;;;;
2021/05/14 21:53:43;;;;;;;5.2;3.3;;;;;;;11.62;100;97912.15;;;;
2021/05/14 22:03:42;;;;;;;7.1;4.2;;;;;;;11.74;100;97904.13;;;;
2021/05/14 22:13:42;;;;;;;8.8;5.1;;;;;;;11.74;100;97908.73;;;;
2021/05/14 22:23:39;;;;;;;6.4;4;;;;;;;11.71;100;97915.59;;;;
2021/05/14 22:33:38;;;;;;;8.4;6.5;;;;;;;11.68;100;97920.83;;;;
2021/05/14 22:43:37;;;;;;;6.9;5;;;;;;;11.75;100;97913.02;;;;
2021/05/14 22:53:36;;;;;;;8.7;5.4;;;;;;;11.77;100;97916.95;;;;
2021/05/14 23:03:35;;;;;;;6.5;3.9;;;;;;;11.73;100;97920.67;;;;
2021/05/14 23:13:34;;;;;;;7.3;4.6;;;;;;;11.7;100;97943.66;;;;
2021/05/14 23:23:34;;;;;;;9.6;5.3;;;;;;;11.68;100;97932.42;;;;
2021/05/14 23:33:34;;;;;;;7.7;5.1;;;;;;;11.59;100;97934.41;;;;
2021/05/14 23:43:31;;;;;;;6.9;4.5;;;;;;;11.6;100;97931.36;;;;
2021/05/14 23:53:30;;;;;;;8.2;4.5;;;;;;;11.47;100;97927.02;;;;
